Ana Sayfa
METAR-TAF:

METAR-TAF

Havaalanları :

Ivano-Frankivsk Uluslararası Havalimanı

İvano-Frankivsk, Ukrayna

Enlem: 48-53-03N, Boylam: 024-41-10E, yükseklik: 280 m

Güncel hava durumu gözlemi

Rapor saat 17:30 UTC de 45 dakika önce yapıldı.
Rüzgar batıdan 12 kt
Sıcaklık 5°C
Nem 60%
Basınç 1016 hPa
Görüş mesafesi 10 km veya daha fazla
4000 ft yükseklikte parçalı çok bulutlu

METAR: UKLI 241730Z 28006MPS 9999 BKN040 05/M02 Q1016 R28/090070 NOSIG

Saat: 20:15 (18:15 UTC)

Tahmin

Rapor saat 17:02 UTC de 1 saat ve 13 dakika önce yapıldı.
Ayın 24'si saat 18 UTC'den ayın 25'si saat 03 UTC'ye kadar geçerli Tahmin
Rüzgar batıdan 17 kt ve 27 kt'a kadar ani rüzgarlar
Görüş mesafesi 10 km veya daha fazla
3000 ft yükseklikte parçalı çok bulutlu
Geçici
ayın 24'si saat 18 UTC'den ayın 24'si saat 21 UTC'ye kadar
Rüzgar kuzeybatıdan 33 kt ve 43 kt'a kadar ani rüzgarlar

TAF: UKLI 241702Z 2418/2503 28009G14MPS 9999 BKN030 TX05/2418Z TN00/2503Z TEMPO 2418/2421 32017G22MPS

4.000'den fazla havaalanı için hava durumu gözlemleri ve tahminleri (METAR ve TAF raporları).

Kullanılabilir istasyonlar harita üzerinde sarı ve kırmızı noktalarla gösterilir.

İstasyonun adını görmek için fareyi noktanın üzerinde gezdirin.

Sonrasında hava gözlem ve tahminlerini görmek için tıklayın.

Haritayı değiştirmek için: yaklaştırmak için siyah artı işaretli yeşil düğmeye ve uzaklaştırmak için de eksi işaretli düğmeye hızla tıklayın; bitişik haritalar için yeşil okları kullanın.


METAR-TAF: